Time;durP1;ratioP1;P1;durP2;ratioP2;P2;SDS_P1;SDS_P2;PMS_P1;PMS_P2;Temp;Humidity;BMP_temperature;BMP_pressure;BME280_temperature;BME280_humidity;BME280_pressure;Samples;Min_cycle;Max_cycle;Signal;HPM_P1;HPM_P2
2023/05/11 00:00:33;;;;;;;2.05;1.85;;;;;;;21.79;49.37;100330.41;4537828;28;20032;-64
2023/05/11 00:02:44;;;;;;;2.00;1.80;;;;;;;21.99;49.43;100366.47;4537647;28;20562;-64
2023/05/11 00:04:54;;;;;;;2.08;1.80;;;;;;;21.99;49.38;100369.34;4536783;28;20186;-64
2023/05/11 00:07:05;;;;;;;1.92;1.77;;;;;;;21.99;49.79;100366.47;4537591;28;20094;-64
2023/05/11 00:09:15;;;;;;;2.20;2.00;;;;;;;21.95;49.48;100362.72;4537332;28;20052;-64
2023/05/11 00:11:26;;;;;;;2.20;2.00;;;;;;;22.01;49.52;100374.72;4537134;28;20037;-64
2023/05/11 00:13:36;;;;;;;2.10;1.90;;;;;;;22.00;49.52;100373.91;4518124;28;20551;-64
2023/05/11 00:15:47;;;;;;;2.30;2.10;;;;;;;21.96;49.37;100367.25;4536755;28;20159;-64
2023/05/11 00:17:57;;;;;;;2.05;1.83;;;;;;;22.00;49.55;100365.28;4519181;28;20045;-64
2023/05/11 00:20:08;;;;;;;2.30;2.10;;;;;;;21.98;49.08;100356.22;4537331;28;20067;-64
2023/05/11 00:22:18;;;;;;;2.50;2.10;;;;;;;21.99;49.23;100357.84;4536622;28;20045;-64
2023/05/11 00:24:29;;;;;;;2.45;2.00;;;;;;;22.00;49.75;100358.69;4537079;28;20033;-64
2023/05/11 00:26:39;;;;;;;2.65;2.20;;;;;;;22.00;49.38;100359.53;4536613;28;20044;-64
2023/05/11 00:28:50;;;;;;;3.30;2.28;;;;;;;21.98;49.23;100356.22;4536475;28;20497;-64
2023/05/11 00:31:00;;;;;;;2.22;1.80;;;;;;;21.99;49.74;100363.59;4536762;28;20148;-64
2023/05/11 00:33:11;;;;;;;2.13;1.92;;;;;;;22.00;49.63;100365.28;4536861;28;20028;-64
2023/05/11 00:35:21;;;;;;;2.28;1.90;;;;;;;21.99;49.87;100362.78;4536764;28;20072;-64
2023/05/11 00:37:32;;;;;;;2.10;1.90;;;;;;;22.00;50.10;100373.91;4517322;28;20034;-64
2023/05/11 00:39:42;;;;;;;1.80;1.70;;;;;;;21.99;49.59;100360.72;4518215;28;20032;-64
2023/05/11 00:41:53;;;;;;;2.55;1.90;;;;;;;22.00;50.07;100373.06;4536345;28;20044;-64
2023/05/11 00:44:04;;;;;;;2.22;1.90;;;;;;;21.99;49.85;100363.59;4534092;28;20037;-64
2023/05/11 00:46:16;;;;;;;2.00;1.80;;;;;;;21.99;49.96;100362.78;4517570;28;21235;-64
2023/05/11 00:48:26;;;;;;;2.35;2.10;;;;;;;21.99;50.01;100371.41;4517800;28;20092;-64
2023/05/11 00:50:37;;;;;;;2.20;1.95;;;;;;;21.99;49.91;100368.53;4536180;28;20551;-64
2023/05/11 00:52:47;;;;;;;2.15;1.83;;;;;;;21.96;50.01;100364.38;4536015;28;20044;-64
2023/05/11 00:54:58;;;;;;;2.20;1.80;;;;;;;21.99;49.60;100369.34;4535249;28;20029;-64
2023/05/11 00:57:08;;;;;;;2.15;1.90;;;;;;;21.93;49.49;100361.44;4517416;28;20048;-64
2023/05/11 00:59:19;;;;;;;2.25;2.05;;;;;;;21.98;49.59;100370.56;4536244;28;20027;-64
2023/05/11 01:01:29;;;;;;;2.13;1.92;;;;;;;21.98;49.56;100364.84;4535730;28;20037;-64
2023/05/11 01:03:40;;;;;;;2.05;1.85;;;;;;;21.98;50.10;100361.97;4535100;28;20068;-66
2023/05/11 01:06:15;;;;;;;2.20;2.00;;;;;;;21.99;49.54;100368.53;4535668;28;20584;-64
2023/05/11 01:08:39;;;;;;;2.38;1.80;;;;;;;21.98;50.35;100366.88;4536344;28;20126;-65
2023/05/11 01:11:21;;;;;;;2.10;1.90;;;;;;;21.92;50.12;100359.78;4536804;28;20598;-64
2023/05/11 01:13:41;;;;;;;2.85;2.10;;;;;;;21.98;49.58;100364.84;4522908;28;20564;-64
2023/05/11 01:15:57;;;;;;;2.15;1.95;;;;;;;21.95;50.04;100356.97;4516856;28;20045;-64
2023/05/11 01:18:26;;;;;;;2.20;2.00;;;;;;;21.97;49.85;100366.06;4534437;28;20033;-64
2023/05/11 01:20:37;;;;;;;2.58;1.92;;;;;;;21.94;49.84;100361.06;4534818;28;20239;-64
2023/05/11 01:23:06;;;;;;;1.98;1.77;;;;;;;21.98;50.18;100366.88;4533934;28;20037;-63
2023/05/11 01:25:37;;;;;;;2.70;2.10;;;;;;;21.98;50.16;100369.75;4533157;28;20155;-64
2023/05/11 01:28:45;;;;;;;2.13;1.92;;;;;;;21.97;49.90;100368.09;4535782;28;20025;-64
2023/05/11 01:31:07;;;;;;;2.40;2.20;;;;;;;21.97;50.14;100368.09;4479548;28;21232;-64
2023/05/11 01:33:25;;;;;;;2.50;2.17;;;;;;;21.97;49.97;100368.94;4478540;28;20038;-64
2023/05/11 01:35:40;;;;;;;2.55;2.15;;;;;;;21.96;50.34;100358.63;4503466;28;20607;-64
2023/05/11 01:37:55;;;;;;;2.33;2.00;;;;;;;21.96;50.45;100370.13;4535435;28;20041;-64
2023/05/11 01:40:15;;;;;;;2.03;1.83;;;;;;;21.97;50.15;100366.06;4532661;28;20598;-64
2023/05/11 01:42:39;;;;;;;2.25;1.98;;;;;;;21.89;50.23;100358.50;4534377;28;20040;-64
2023/05/11 01:44:52;;;;;;;2.20;2.00;;;;;;;21.96;50.05;100370.13;4533769;28;20041;-64
2023/05/11 01:47:03;;;;;;;2.00;1.80;;;;;;;21.92;50.06;100362.66;4535035;28;20569;-64
2023/05/11 01:49:16;;;;;;;2.40;2.00;;;;;;;21.89;50.04;100364.25;4517358;28;20038;-64
2023/05/11 01:51:32;;;;;;;2.00;1.80;;;;;;;21.93;50.29;100370.88;4536024;28;20112;-64
2023/05/11 01:53:45;;;;;;;2.20;1.98;;;;;;;21.90;50.54;100365.91;4534432;28;20044;-64
2023/05/11 01:55:56;;;;;;;2.40;2.20;;;;;;;21.92;50.16;100372.09;4517192;28;20039;-65
2023/05/11 01:58:09;;;;;;;2.03;1.83;;;;;;;21.95;50.11;100377.09;4517205;28;21233;-64
2023/05/11 02:00:21;;;;;;;2.20;2.00;;;;;;;21.95;50.18;100379.13;4517433;28;20072;-64
2023/05/11 02:02:34;;;;;;;2.53;2.33;;;;;;;21.95;50.09;100379.97;4517031;28;20052;-64
2023/05/11 02:04:45;;;;;;;2.25;2.05;;;;;;;21.92;49.99;100372.09;4535397;28;20111;-64
2023/05/11 02:06:58;;;;;;;2.35;2.10;;;;;;;21.94;50.40;100384.06;4536697;28;20044;-64
2023/05/11 02:09:11;;;;;;;2.20;2.00;;;;;;;21.94;50.52;100378.31;4535991;28;20037;-64
2023/05/11 02:11:24;;;;;;;2.45;1.98;;;;;;;21.92;50.54;100369.25;4534529;28;20595;-64
2023/05/11 02:13:40;;;;;;;2.30;2.10;;;;;;;21.94;50.18;100378.31;4518461;28;20831;-65
2023/05/11 02:15:55;;;;;;;2.33;2.10;;;;;;;21.93;49.98;100370.03;4517156;28;20587;-64
2023/05/11 02:18:08;;;;;;;2.45;2.20;;;;;;;21.91;50.17;100373.31;4508762;28;20129;-64
2023/05/11 02:20:19;;;;;;;2.40;2.13;;;;;;;21.94;50.16;100374.59;4533701;28;21178;-64
2023/05/11 02:22:32;;;;;;;2.53;2.30;;;;;;;21.94;50.29;100380.34;4517112;28;20022;-64
2023/05/11 02:24:43;;;;;;;2.70;2.30;;;;;;;21.93;50.32;100381.53;4518670;28;20037;-64
2023/05/11 02:26:54;;;;;;;2.40;2.10;;;;;;;21.93;50.35;100382.38;4517724;28;20037;-64
2023/05/11 02:29:04;;;;;;;2.40;2.13;;;;;;;21.92;50.63;100377.84;4534603;28;20025;-64
2023/05/11 02:31:23;;;;;;;2.42;2.08;;;;;;;21.90;50.51;100371.66;4533685;28;20033;-64
2023/05/11 02:33:36;;;;;;;2.47;2.28;;;;;;;21.93;50.34;100382.38;4533160;28;20037;-64
2023/05/11 02:35:49;;;;;;;2.30;2.08;;;;;;;21.90;50.03;100380.28;4516703;28;20040;-64
2023/05/11 02:38:02;;;;;;;2.70;2.40;;;;;;;21.92;50.40;100383.59;4535303;28;20037;-64
2023/05/11 02:40:18;;;;;;;2.40;2.20;;;;;;;21.93;50.16;100385.25;4533666;28;20036;-64
2023/05/11 02:42:37;;;;;;;2.85;2.10;;;;;;;21.90;50.26;100383.16;4499994;28;20315;-64
2023/05/11 02:44:52;;;;;;;;;;;;;;;21.92;50.63;100374.97;4535477;28;20033;-64
2023/05/11 02:47:05;;;;;;;2.28;2.08;;;;;;;21.92;50.58;100386.47;4517667;28;19994;-64
2023/05/11 02:49:19;;;;;;;2.47;2.28;;;;;;;21.89;50.43;100375.75;4516631;28;21260;-64
2023/05/11 02:51:34;;;;;;;2.45;2.10;;;;;;;21.90;50.37;100377.41;4534108;28;20066;-64
2023/05/11 02:53:47;;;;;;;2.15;1.95;;;;;;;21.92;50.53;100377.84;4515784;28;20628;-64
2023/05/11 02:55:59;;;;;;;2.67;2.40;;;;;;;21.88;50.54;100379.81;4533062;28;20953;-64
2023/05/11 02:58:10;;;;;;;2.20;2.00;;;;;;;21.86;50.17;100373.66;4517451;28;20033;-64
2023/05/11 03:00:23;;;;;;;2.30;2.10;;;;;;;21.90;50.30;100376.56;4516039;28;20044;-64
2023/05/11 03:02:33;;;;;;;2.83;2.10;;;;;;;21.90;50.43;100383.16;4516182;28;20565;-64
2023/05/11 03:04:43;;;;;;;2.30;2.10;;;;;;;21.88;50.49;100374.06;4516555;28;20057;-64
2023/05/11 03:06:54;;;;;;;2.45;2.20;;;;;;;21.88;50.26;100382.69;4532901;28;20025;-64
2023/05/11 03:09:05;;;;;;;2.40;2.20;;;;;;;21.89;50.17;100378.63;4516455;28;20037;-64
2023/05/11 03:11:20;;;;;;;2.63;2.30;;;;;;;21.83;50.27;100374.41;4515914;28;20037;-64
2023/05/11 03:13:32;;;;;;;3.05;2.35;;;;;;;21.88;50.19;100385.56;4516287;28;20127;-64
2023/05/11 03:15:45;;;;;;;2.40;2.03;;;;;;;21.88;50.60;100382.69;4516391;28;20034;-64
2023/05/11 03:17:57;;;;;;;1.92;1.75;;;;;;;21.89;50.31;100384.38;4531730;28;20109;-64
2023/05/11 03:20:09;;;;;;;2.72;2.25;;;;;;;21.88;50.66;100379.00;4515867;28;20057;-64
2023/05/11 03:22:22;;;;;;;2.22;2.03;;;;;;;21.90;50.72;100385.19;4534327;28;20013;-64
2023/05/11 03:24:33;;;;;;;2.63;2.30;;;;;;;21.89;50.80;100386.41;4514785;28;20560;-64
2023/05/11 03:26:44;;;;;;;2.53;2.00;;;;;;;21.89;50.46;100387.25;4514789;28;20044;-64
2023/05/11 03:28:56;;;;;;;2.90;2.30;;;;;;;21.86;50.48;100382.25;4534136;28;20040;-64
2023/05/11 03:31:07;;;;;;;2.20;2.00;;;;;;;21.83;50.48;100377.28;4534497;28;20044;-64
2023/05/11 03:33:19;;;;;;;2.10;1.90;;;;;;;21.88;50.63;100384.75;4515518;28;20584;-64
2023/05/11 03:35:33;;;;;;;2.03;1.83;;;;;;;21.85;51.01;100377.72;4531838;28;20049;-64
2023/05/11 03:37:46;;;;;;;2.30;2.10;;;;;;;21.88;50.51;100384.75;4515926;28;20404;-63
2023/05/11 03:39:58;;;;;;;2.47;2.28;;;;;;;21.86;50.37;100382.25;4515642;28;20057;-64
2023/05/11 03:42:13;;;;;;;2.60;2.20;;;;;;;21.87;50.34;100383.91;4532001;28;20576;-64
2023/05/11 03:44:25;;;;;;;2.35;2.10;;;;;;;21.85;50.63;100380.59;4514856;28;20042;-64
2023/05/11 03:46:39;;;;;;;3.25;2.30;;;;;;;21.84;50.76;100378.09;4515597;28;20038;-64
2023/05/11 03:48:51;;;;;;;2.47;2.28;;;;;;;21.85;50.69;100379.78;4515955;28;20038;-64
2023/05/11 03:51:08;;;;;;;2.38;2.13;;;;;;;21.80;50.41;100365.72;4532500;28;20029;-64
2023/05/11 03:53:19;;;;;;;2.80;2.50;;;;;;;21.85;50.57;100379.78;4514454;28;20587;-64
2023/05/11 03:55:29;;;;;;;2.40;2.20;;;;;;;21.87;50.74;100378.16;4515700;28;20177;-64
2023/05/11 03:57:40;;;;;;;2.53;2.13;;;;;;;21.82;50.39;100369.84;4516155;28;20041;-63
2023/05/11 03:59:50;;;;;;;2.20;2.00;;;;;;;21.84;50.45;100363.72;4532482;28;20029;-64
2023/05/11 04:02:02;;;;;;;2.38;1.95;;;;;;;21.87;50.64;100377.31;4514570;28;20037;-64
2023/05/11 04:04:12;;;;;;;2.28;2.03;;;;;;;21.85;50.63;100380.59;4515561;28;20660;-63
2023/05/11 04:06:23;;;;;;;3.42;2.20;;;;;;;21.81;50.77;100370.25;4536097;28;20049;-64
2023/05/11 04:08:42;;;;;;;2.10;1.90;;;;;;;21.86;50.90;100382.25;4534858;28;21689;-64
2023/05/11 04:10:53;;;;;;;2.40;2.20;;;;;;;21.86;50.81;100378.56;4517318;28;20069;-64
2023/05/11 04:13:03;;;;;;;2.88;2.42;;;;;;;21.85;50.76;100385.53;4535712;28;20103;-64
2023/05/11 04:15:13;;;;;;;2.90;2.45;;;;;;;21.83;50.99;100373.56;4535762;28;20049;-64
2023/05/11 04:17:24;;;;;;;2.90;2.53;;;;;;;21.82;50.83;100372.72;4536122;28;20340;-63
2023/05/11 04:19:35;;;;;;;2.53;2.20;;;;;;;21.85;50.71;100379.78;4536733;28;20041;-64
2023/05/11 04:21:45;;;;;;;2.97;2.53;;;;;;;21.78;50.75;100374.72;4517146;28;20120;-64
2023/05/11 04:23:56;;;;;;;3.40;3.00;;;;;;;21.83;50.48;100387.94;4536106;28;20567;-64
2023/05/11 04:26:07;;;;;;;4.70;3.80;;;;;;;21.84;50.52;100380.97;4534541;28;20564;-63
2023/05/11 04:28:18;;;;;;;4.22;3.70;;;;;;;21.83;50.71;100382.19;4536799;28;20116;-64
2023/05/11 04:30:28;;;;;;;4.53;4.10;;;;;;;21.84;50.95;100375.22;4536600;28;20152;-64
2023/05/11 04:32:40;;;;;;;0.40;0.40;;;;;;;21.91;51.89;100387.66;4517898;28;20042;-64
2023/05/11 04:34:52;;;;;;;0.30;0.30;;;;;;;21.92;51.44;100377.03;4534269;28;20577;-64
2023/05/11 04:37:06;;;;;;;0.22;0.22;;;;;;;21.98;51.89;100384.94;4517279;28;20053;-64
2023/05/11 04:39:17;;;;;;;0.32;0.32;;;;;;;22.03;51.66;100393.25;4533746;28;20029;-64
2023/05/11 04:41:28;;;;;;;0.30;0.30;;;;;;;22.04;51.41;100385.47;4533595;28;20477;-64
2023/05/11 04:43:41;;;;;;;0.30;0.30;;;;;;;22.04;51.42;100382.59;4517687;28;20021;-64
2023/05/11 04:45:53;;;;;;;0.20;0.20;;;;;;;22.02;51.26;100385.84;4533241;28;20041;-64
2023/05/11 04:48:08;;;;;;;0.25;0.25;;;;;;;22.03;51.39;100384.63;4517808;28;20060;-64
2023/05/11 04:50:19;;;;;;;0.20;0.20;;;;;;;22.01;51.28;100384.19;4517887;28;20600;-64
2023/05/11 04:52:29;;;;;;;0.30;0.30;;;;;;;22.07;51.62;100397.00;4518255;28;20033;-64
2023/05/11 04:54:40;;;;;;;0.20;0.20;;;;;;;22.05;51.59;100390.84;4534421;28;20402;-64
2023/05/11 04:56:50;;;;;;;0.22;0.20;;;;;;;22.07;51.32;100399.88;4536821;28;20061;-64
2023/05/11 04:59:01;;;;;;;0.30;0.30;;;;;;;22.05;51.26;100390.84;4536736;28;20045;-64
2023/05/11 05:01:11;;;;;;;0.22;0.22;;;;;;;22.06;51.10;100392.50;4520249;28;20029;-64
2023/05/11 05:03:23;;;;;;;0.20;0.20;;;;;;;22.03;51.36;100384.63;4534690;28;20037;-64
2023/05/11 05:05:33;;;;;;;0.30;0.30;;;;;;;22.04;51.71;100389.16;4535600;28;20040;-64
2023/05/11 05:07:44;;;;;;;0.38;0.38;;;;;;;22.06;51.21;100406.03;4536970;28;20033;-64
2023/05/11 05:09:54;;;;;;;0.20;0.20;;;;;;;22.04;51.38;100403.53;4534804;28;20053;-64
2023/05/11 05:12:05;;;;;;;0.30;0.30;;;;;;;22.06;51.15;100406.03;4535954;28;20041;-64
2023/05/11 05:14:15;;;;;;;0.17;0.17;;;;;;;22.05;51.32;100408.09;4535810;28;20785;-63
2023/05/11 05:16:27;;;;;;;0.20;0.20;;;;;;;22.07;51.44;100404.84;4517058;28;20140;-64
2023/05/11 05:18:37;;;;;;;0.30;0.30;;;;;;;21.96;51.27;100383.69;4534071;28;20940;-64
2023/05/11 05:20:48;;;;;;;0.20;0.20;;;;;;;22.07;51.53;100413.44;4517044;28;20475;-64
2023/05/11 05:22:58;;;;;;;0.30;0.30;;;;;;;22.06;51.49;100404.00;4534472;28;20099;-64
2023/05/11 05:25:09;;;;;;;0.20;0.20;;;;;;;22.06;51.40;100409.75;4533343;28;20029;-64
2023/05/11 05:27:20;;;;;;;0.28;0.28;;;;;;;22.05;51.47;100419.59;4517538;28;20032;-63
2023/05/11 05:29:30;;;;;;;0.20;0.20;;;;;;;22.09;51.35;100420.47;4516464;28;20041;-64
2023/05/11 05:31:41;;;;;;;0.22;0.22;;;;;;;22.05;51.68;100413.00;4517063;28;20030;-65
2023/05/11 05:33:52;;;;;;;0.20;0.20;;;;;;;22.04;51.42;100412.16;4516426;28;20037;-64
2023/05/11 05:36:03;;;;;;;0.28;0.28;;;;;;;22.05;51.54;100407.25;4535013;28;20144;-64
2023/05/11 05:38:14;;;;;;;0.43;0.30;;;;;;;22.02;51.26;100416.63;4534145;28;20488;-64
2023/05/11 05:40:24;;;;;;;3.10;1.00;;;;;;;22.05;51.50;100425.34;4517811;28;20056;-64
2023/05/11 05:42:38;;;;;;;2.70;1.02;;;;;;;22.05;51.54;100424.50;4517744;28;20043;-64
2023/05/11 05:44:51;;;;;;;3.05;1.15;;;;;;;22.05;51.67;100421.63;4534109;28;20033;-65
2023/05/11 05:47:01;;;;;;;3.90;1.30;;;;;;;22.04;51.88;100422.84;4518334;28;20064;-65
2023/05/11 05:49:15;;;;;;;4.93;1.45;;;;;;;22.03;51.66;100424.03;4534127;28;20028;-65
2023/05/11 05:51:26;;;;;;;7.93;1.45;;;;;;;22.05;51.85;100425.34;4511712;28;20026;-65
2023/05/11 05:53:37;;;;;;;4.90;1.50;;;;;;;22.05;51.83;100425.34;4518161;28;20038;-65
2023/05/11 05:55:47;;;;;;;2.70;1.13;;;;;;;22.02;52.06;100423.19;4516678;28;20049;-64
2023/05/11 05:57:58;;;;;;;4.88;1.40;;;;;;;22.04;51.96;100428.59;4534996;28;20040;-65
2023/05/11 06:00:09;;;;;;;3.72;1.65;;;;;;;22.04;51.76;100429.41;4517151;28;20097;-65
2023/05/11 06:02:25;;;;;;;3.60;1.40;;;;;;;22.01;51.89;100418.66;4532329;28;20048;-64
2023/05/11 06:04:37;;;;;;;4.90;1.30;;;;;;;22.04;52.29;100435.16;4535030;28;20044;-65
2023/05/11 06:06:47;;;;;;;4.60;1.25;;;;;;;22.05;52.18;100436.81;4533480;28;20137;-65
2023/05/11 06:08:58;;;;;;;6.40;1.67;;;;;;;22.03;52.05;100436.38;4517615;28;20069;-65
2023/05/11 06:11:08;;;;;;;3.92;1.20;;;;;;;22.04;51.92;100440.09;4536424;28;20037;-66
2023/05/11 06:13:19;;;;;;;3.15;1.42;;;;;;;22.01;52.07;100427.28;4516868;28;20123;-64
2023/05/11 06:15:30;;;;;;;5.97;1.65;;;;;;;22.02;52.18;100431.81;4533738;28;20116;-65
2023/05/11 06:17:48;;;;;;;3.58;1.40;;;;;;;22.00;52.03;100434.25;4533939;28;20032;-64
2023/05/11 06:19:58;;;;;;;4.05;1.40;;;;;;;22.05;52.28;100438.88;4534915;28;20563;-63
2023/05/11 06:22:11;;;;;;;3.55;1.50;;;;;;;22.04;51.74;100446.63;4534024;28;20291;-63
2023/05/11 06:24:22;;;;;;;3.03;1.27;;;;;;;22.04;51.78;100440.91;4491044;28;20186;-63
2023/05/11 06:26:33;;;;;;;2.45;1.25;;;;;;;22.04;51.79;100440.91;4514907;28;20112;-65
2023/05/11 06:28:43;;;;;;;4.10;1.30;;;;;;;22.03;51.83;100445.00;4512530;28;20033;-63
2023/05/11 06:30:58;;;;;;;4.35;1.30;;;;;;;22.02;52.13;100446.19;4533649;28;20292;-63
2023/05/11 06:33:09;;;;;;;3.42;1.27;;;;;;;22.02;52.15;100446.19;4517087;28;20047;-63
2023/05/11 06:35:21;;;;;;;3.47;1.02;;;;;;;22.04;52.00;100449.50;4516402;28;20125;-63
2023/05/11 06:37:32;;;;;;;5.10;1.60;;;;;;;22.05;51.78;100447.47;4516992;28;20851;-63
2023/05/11 06:39:43;;;;;;;3.05;1.30;;;;;;;22.03;51.84;100444.16;4492000;28;20052;-63
2023/05/11 06:41:54;;;;;;;4.22;1.40;;;;;;;22.00;51.99;100445.75;4534921;28;20029;-63
2023/05/11 06:44:04;;;;;;;3.75;1.73;;;;;;;22.02;51.84;100443.31;4516821;28;20426;-63
2023/05/11 06:46:20;;;;;;;3.92;1.48;;;;;;;22.00;51.90;100445.75;4507196;28;20041;-63
2023/05/11 06:48:31;;;;;;;4.22;1.70;;;;;;;22.03;52.05;100438.41;4532487;28;20383;-64
2023/05/11 06:50:42;;;;;;;4.85;1.40;;;;;;;22.03;52.06;100439.25;4517262;28;20040;-63
2023/05/11 06:52:56;;;;;;;3.10;1.17;;;;;;;22.01;51.73;100437.94;4533738;28;20043;-63
2023/05/11 06:55:07;;;;;;;4.63;1.55;;;;;;;22.00;52.08;100442.88;4534685;28;20111;-63
2023/05/11 06:57:17;;;;;;;4.40;1.40;;;;;;;21.99;52.06;100441.19;4534807;28;20104;-63
2023/05/11 06:59:28;;;;;;;3.47;1.42;;;;;;;22.02;52.12;100449.06;4516766;28;20057;-63
2023/05/11 07:01:39;;;;;;;5.05;1.55;;;;;;;22.01;52.25;100446.56;4534616;28;20104;-63
2023/05/11 07:03:49;;;;;;;3.05;1.10;;;;;;;22.01;51.97;100444.53;4532906;28;20108;-63
2023/05/11 07:06:00;;;;;;;2.90;1.35;;;;;;;22.02;52.26;100449.06;4534506;28;20132;-63
2023/05/11 07:08:10;;;;;;;2.75;1.30;;;;;;;22.03;52.36;100450.75;4534329;28;20595;-63
2023/05/11 07:10:21;;;;;;;3.38;1.30;;;;;;;22.02;51.90;100448.25;4534007;28;20309;-63
2023/05/11 07:12:31;;;;;;;3.10;1.52;;;;;;;22.04;52.04;100449.50;4533987;28;20041;-63
2023/05/11 07:14:42;;;;;;;3.08;1.30;;;;;;;22.03;52.10;100445.00;4533945;28;20055;-63
2023/05/11 07:16:52;;;;;;;2.95;1.20;;;;;;;22.02;52.06;100448.25;4535937;28;20040;-63
2023/05/11 07:19:03;;;;;;;3.13;1.27;;;;;;;22.03;52.05;100450.75;4490803;28;20116;-63
2023/05/11 07:21:14;;;;;;;3.60;1.27;;;;;;;22.01;52.05;100447.41;4534565;28;20979;-64
2023/05/11 07:23:25;;;;;;;2.30;1.20;;;;;;;22.00;52.13;100445.75;4535144;28;20033;-63
2023/05/11 07:25:35;;;;;;;3.10;1.23;;;;;;;21.95;52.13;100443.19;4534839;28;20440;-63
2023/05/11 07:27:46;;;;;;;3.20;1.25;;;;;;;22.00;52.22;100456.41;4516388;28;20494;-63
2023/05/11 07:29:56;;;;;;;3.42;1.40;;;;;;;22.03;52.20;100456.50;4534982;28;20035;-63
2023/05/11 07:32:06;;;;;;;2.58;1.20;;;;;;;22.01;52.07;100458.91;4531776;28;20041;-63
2023/05/11 07:34:17;;;;;;;3.13;1.20;;;;;;;22.03;52.01;100455.66;4515396;28;20100;-63
2023/05/11 07:36:28;;;;;;;3.30;1.10;;;;;;;22.02;51.98;100454.81;4534500;28;20103;-63
2023/05/11 07:38:39;;;;;;;3.83;1.45;;;;;;;21.99;52.35;100452.69;4535018;28;20045;-63
2023/05/11 07:40:49;;;;;;;3.83;1.08;;;;;;;21.98;51.93;100453.09;4519345;28;20025;-63
2023/05/11 07:43:00;;;;;;;3.30;1.33;;;;;;;22.02;52.47;100457.69;4538203;28;20052;-63
2023/05/11 07:45:11;;;;;;;3.13;1.33;;;;;;;22.02;52.42;100454.81;4537456;28;20543;-63
2023/05/11 07:47:22;;;;;;;2.40;1.25;;;;;;;22.02;52.16;100460.56;4537515;28;20077;-63
2023/05/11 07:49:32;;;;;;;3.80;1.27;;;;;;;21.95;52.23;100443.19;4535668;28;20108;-66
2023/05/11 07:51:43;;;;;;;3.40;1.30;;;;;;;21.97;51.93;100446.53;4535812;28;20452;-63
2023/05/11 07:53:54;;;;;;;4.55;1.50;;;;;;;22.02;52.36;100454.81;4537805;28;20037;-63
2023/05/11 07:56:04;;;;;;;2.88;1.20;;;;;;;22.01;51.98;100450.28;4538330;28;20037;-63
2023/05/11 07:58:15;;;;;;;3.00;1.50;;;;;;;22.01;52.24;100452.31;4537128;28;20060;-63
2023/05/11 08:00:25;;;;;;;2.80;1.30;;;;;;;21.99;52.36;100449.81;4537559;28;20449;-63
2023/05/11 08:02:36;;;;;;;2.63;1.20;;;;;;;21.99;52.15;100455.56;4538016;28;20036;-63
2023/05/11 08:04:47;;;;;;;3.13;1.20;;;;;;;22.01;52.61;100456.03;4537399;28;20047;-63
2023/05/11 08:06:57;;;;;;;3.53;1.23;;;;;;;21.97;52.27;100446.53;4538792;28;20497;-63
2023/05/11 08:09:08;;;;;;;2.38;1.20;;;;;;;21.96;52.22;100447.72;4537316;28;20124;-63
2023/05/11 08:11:18;;;;;;;3.08;1.10;;;;;;;22.02;52.31;100449.06;4536964;28;20083;-63
2023/05/11 08:13:29;;;;;;;2.92;1.30;;;;;;;21.95;52.26;100436.59;4537689;28;20037;-63
2023/05/11 08:15:39;;;;;;;3.20;1.20;;;;;;;21.97;52.50;100443.66;4537754;28;20049;-63
2023/05/11 08:17:49;;;;;;;2.28;1.20;;;;;;;22.01;52.50;100458.91;4537436;28;20092;-63
2023/05/11 08:20:00;;;;;;;2.58;1.30;;;;;;;22.00;52.45;100457.25;4537378;28;20366;-63
2023/05/11 08:22:10;;;;;;;3.75;1.23;;;;;;;22.01;52.12;100464.66;4537807;28;20086;-63
2023/05/11 08:24:21;;;;;;;3.38;1.35;;;;;;;22.02;52.20;100459.75;4537017;28;20489;-63
2023/05/11 08:26:32;;;;;;;3.13;1.13;;;;;;;21.96;52.21;100444.84;4537136;28;20037;-63
2023/05/11 08:28:42;;;;;;;2.08;1.00;;;;;;;22.00;52.59;100457.25;4537189;28;20037;-63
2023/05/11 08:30:55;;;;;;;2.38;1.30;;;;;;;22.03;52.23;100455.66;4537938;28;20108;-63
2023/05/11 08:33:06;;;;;;;2.55;1.27;;;;;;;22.01;52.26;100452.31;4537287;28;20037;-63
2023/05/11 08:35:17;;;;;;;2.20;1.05;;;;;;;22.03;52.19;100456.50;4537773;28;20721;-63
2023/05/11 08:37:27;;;;;;;2.22;1.00;;;;;;;22.02;52.48;100459.75;4536406;28;20134;-63
2023/05/11 08:39:38;;;;;;;2.58;1.20;;;;;;;22.01;52.46;100453.16;4537981;28;20508;-63
2023/05/11 08:41:50;;;;;;;2.38;1.02;;;;;;;22.03;52.33;100456.50;4538107;28;20040;-63
2023/05/11 08:44:01;;;;;;;3.25;1.13;;;;;;;22.02;52.39;100457.69;4537634;28;20652;-64
2023/05/11 08:46:19;;;;;;;2.50;1.10;;;;;;;22.02;52.29;100454.81;4537151;28;20191;-63
2023/05/11 08:48:30;;;;;;;3.10;1.27;;;;;;;22.03;52.23;100456.50;4537320;28;20033;-63
2023/05/11 08:50:41;;;;;;;3.45;1.40;;;;;;;22.01;52.41;100450.28;4537269;28;20825;-63
2023/05/11 08:52:51;;;;;;;2.42;1.10;;;;;;;22.01;52.53;100456.03;4537263;28;20048;-64
2023/05/11 08:55:02;;;;;;;1.88;0.90;;;;;;;22.02;52.26;100459.75;4537061;28;20076;-63
2023/05/11 08:57:13;;;;;;;2.83;1.17;;;;;;;22.01;52.35;100453.16;4537210;28;20095;-64
2023/05/11 08:59:27;;;;;;;2.55;1.00;;;;;;;22.01;52.15;100458.06;4537236;28;20123;-64
2023/05/11 09:01:40;;;;;;;2.85;1.10;;;;;;;22.03;52.55;100453.63;4536963;28;20036;-63
2023/05/11 09:03:51;;;;;;;2.47;1.00;;;;;;;22.04;52.52;100466.75;4537163;28;20560;-64
2023/05/11 09:06:06;;;;;;;2.35;1.00;;;;;;;22.05;52.38;100458.97;4537165;28;20041;-63
2023/05/11 09:08:17;;;;;;;1.90;1.05;;;;;;;22.05;52.31;100465.56;4536532;28;20037;-64
2023/05/11 09:10:28;;;;;;;3.10;1.30;;;;;;;22.04;52.63;100461.00;4519022;28;20273;-64
2023/05/11 09:12:38;;;;;;;2.22;0.95;;;;;;;22.03;52.51;100459.38;4535944;28;20469;-64
2023/05/11 09:14:49;;;;;;;2.13;1.00;;;;;;;22.05;52.36;100462.69;4537072;28;20045;-63
2023/05/11 09:16:59;;;;;;;2.35;1.08;;;;;;;22.06;52.18;100466.38;4537492;28;20537;-64
2023/05/11 09:19:14;;;;;;;1.98;1.05;;;;;;;22.06;52.20;100472.13;4536937;28;20440;-65
2023/05/11 09:21:25;;;;;;;2.10;0.98;;;;;;;22.06;52.21;100464.34;4518450;28;20102;-66
2023/05/11 09:23:36;;;;;;;2.40;1.10;;;;;;;22.04;52.19;100458.13;4537100;28;20891;-63
2023/05/11 09:25:47;;;;;;;1.98;1.00;;;;;;;22.05;52.29;100474.19;4536136;28;20162;-65
2023/05/11 09:27:58;;;;;;;1.90;1.08;;;;;;;22.03;52.45;100473.72;4536726;28;20047;-64
2023/05/11 09:30:20;;;;;;;1.80;0.85;;;;;;;22.04;52.02;100468.81;4536344;28;20032;-65
2023/05/11 09:32:46;;;;;;;1.30;0.90;;;;;;;22.05;52.47;100467.59;4536498;28;20040;-63
2023/05/11 09:34:56;;;;;;;2.47;0.90;;;;;;;22.03;52.40;100467.97;4536572;28;20077;-65
2023/05/11 09:37:16;;;;;;;1.50;0.82;;;;;;;22.06;52.17;100475.84;4536022;28;20187;-66
2023/05/11 09:39:34;;;;;;;1.40;0.98;;;;;;;22.07;52.59;100473.81;4536949;28;20041;-64
2023/05/11 09:41:44;;;;;;;2.17;0.90;;;;;;;22.03;52.22;100459.38;4535879;28;20017;-64
2023/05/11 09:44:09;;;;;;;1.83;1.08;;;;;;;22.05;52.52;100465.56;4534247;28;20285;-64
2023/05/11 09:46:20;;;;;;;1.63;0.90;;;;;;;22.00;52.99;100467.91;4536217;28;20584;-63
2023/05/11 09:48:31;;;;;;;2.30;1.15;;;;;;;22.02;52.38;100472.06;4518669;28;20045;-64
2023/05/11 09:50:42;;;;;;;2.30;1.10;;;;;;;22.01;52.57;100467.53;4536120;28;20037;-62
2023/05/11 09:52:52;;;;;;;2.10;1.10;;;;;;;21.96;52.58;100456.34;4535880;28;20060;-62
2023/05/11 09:55:09;;;;;;;1.42;1.02;;;;;;;22.02;52.64;100462.63;4535765;28;20048;-63
2023/05/11 09:57:30;;;;;;;2.50;0.90;;;;;;;22.02;52.40;100460.56;4535657;28;20468;-63
2023/05/11 09:59:41;;;;;;;2.17;1.00;;;;;;;22.06;52.75;100461.47;4536079;28;20039;-63
2023/05/11 10:01:52;;;;;;;2.40;1.05;;;;;;;22.06;52.45;100466.38;4535115;28;20568;-64
2023/05/11 10:04:02;;;;;;;2.38;1.00;;;;;;;22.05;52.62;100462.69;4500380;28;20034;-64
2023/05/11 10:06:14;;;;;;;2.92;1.08;;;;;;;22.05;52.50;100459.81;4535102;28;20045;-63
2023/05/11 10:08:29;;;;;;;1.55;1.02;;;;;;;22.07;52.80;100463.13;4536567;28;20106;-64
2023/05/11 10:10:39;;;;;;;2.00;1.10;;;;;;;22.03;52.86;100464.28;4535985;28;20144;-63
2023/05/11 10:12:51;;;;;;;8.80;6.78;;;;;;;21.89;53.81;100467.69;4535687;28;20043;-63
2023/05/11 10:15:03;;;;;;;9.88;7.55;;;;;;;21.84;52.15;100462.25;4534268;28;20776;-64